createdAt,value
2022-10-17T00:01:25.123Z,17.20
2022-10-17T00:03:52.288Z,17.20
2022-10-17T00:06:19.588Z,17.20
2022-10-17T00:08:47.012Z,17.20
2022-10-17T00:11:17.562Z,17.20
2022-10-17T00:13:45.949Z,17.20
2022-10-17T00:16:13.458Z,17.20
2022-10-17T00:18:42.962Z,17.20
2022-10-17T00:21:18.025Z,17.20
2022-10-17T00:23:45.741Z,17.20
2022-10-17T00:26:13.811Z,17.20
2022-10-17T00:28:41.054Z,17.20
2022-10-17T00:31:10.835Z,17.20
2022-10-17T00:33:40.264Z,17.20
2022-10-17T00:36:13.516Z,17.10
2022-10-17T00:38:42.316Z,17.20
2022-10-17T00:41:16.178Z,17.20
2022-10-17T00:44:01.875Z,17.20
2022-10-17T00:46:39.135Z,17.20
2022-10-17T00:49:11.445Z,17.20
2022-10-17T00:51:49.640Z,17.20
2022-10-17T00:54:19.402Z,17.20
2022-10-17T00:56:47.889Z,17.10
2022-10-17T00:59:17.855Z,17.10
2022-10-17T01:02:03.408Z,17.10
2022-10-17T01:04:30.952Z,17.10
2022-10-17T01:06:58.508Z,17.10
2022-10-17T01:09:26.216Z,17.10
2022-10-17T01:12:14.633Z,17.10
2022-10-17T01:15:07.348Z,17.10
2022-10-17T01:17:40.555Z,17.10
2022-10-17T01:20:26.230Z,17.00
2022-10-17T01:23:22.113Z,17.00
2022-10-17T01:26:37.196Z,17.00
2022-10-17T01:29:24.549Z,17.00
2022-10-17T01:32:13.178Z,17.00
2022-10-17T01:34:57.877Z,17.00
2022-10-17T01:37:35.720Z,17.00
2022-10-17T01:40:25.715Z,17.00
2022-10-17T01:43:18.075Z,16.90
2022-10-17T01:46:00.644Z,16.90
2022-10-17T01:48:35.449Z,16.90
2022-10-17T01:51:11.581Z,16.80
2022-10-17T01:53:47.096Z,16.90
2022-10-17T01:56:15.771Z,16.90
2022-10-17T01:58:53.065Z,16.90
2022-10-17T02:01:22.167Z,16.90
2022-10-17T02:03:51.171Z,16.90
2022-10-17T02:06:20.863Z,16.90
2022-10-17T02:08:51.659Z,17.00
2022-10-17T02:11:24.146Z,17.00
2022-10-17T02:14:10.022Z,17.00
2022-10-17T02:17:04.319Z,17.00
2022-10-17T02:19:38.913Z,17.00
2022-10-17T02:22:13.717Z,17.00
2022-10-17T02:25:14.809Z,17.10
2022-10-17T02:28:01.821Z,17.10
2022-10-17T02:30:42.300Z,17.10
2022-10-17T02:33:12.133Z,17.10
2022-10-17T02:35:44.738Z,17.10
2022-10-17T02:38:15.891Z,17.20
2022-10-17T02:40:45.087Z,17.20
2022-10-17T02:43:15.022Z,17.20
2022-10-17T02:45:42.247Z,17.30
2022-10-17T02:48:40.673Z,17.30
2022-10-17T02:51:19.780Z,17.40
2022-10-17T02:54:11.506Z,17.40
2022-10-17T02:56:46.573Z,17.40
2022-10-17T02:59:17.643Z,17.50
2022-10-17T03:01:45.077Z,17.50
2022-10-17T03:04:14.546Z,17.50
2022-10-17T03:06:42.102Z,17.50
2022-10-17T03:09:09.336Z,17.60
2022-10-17T03:11:36.500Z,17.60
2022-10-17T03:14:06.338Z,17.70
2022-10-17T03:16:33.500Z,17.70
2022-10-17T03:19:00.647Z,17.80
2022-10-17T03:21:27.826Z,17.80
2022-10-17T03:23:54.997Z,17.90
2022-10-17T03:26:22.322Z,18.00
2022-10-17T03:28:51.988Z,18.00
2022-10-17T03:31:22.213Z,18.10
2022-10-17T03:33:49.429Z,18.10
2022-10-17T03:36:20.407Z,18.20
2022-10-17T03:38:48.179Z,18.20
2022-10-17T03:41:15.540Z,18.20
2022-10-17T03:43:42.861Z,18.30
2022-10-17T03:46:12.333Z,18.30
2022-10-17T03:48:44.338Z,18.40
2022-10-17T03:51:12.027Z,18.40
2022-10-17T03:53:39.203Z,18.50
2022-10-17T03:56:21.392Z,18.50
2022-10-17T03:58:49.015Z,18.50
2022-10-17T04:01:17.624Z,18.50
2022-10-17T04:03:48.372Z,18.60
2022-10-17T04:06:15.501Z,18.60
2022-10-17T04:08:42.899Z,18.60
2022-10-17T04:11:17.645Z,18.60
2022-10-17T04:13:45.762Z,18.60
2022-10-17T04:16:16.088Z,18.60
2022-10-17T04:18:45.610Z,18.70
2022-10-17T04:21:15.122Z,18.70
2022-10-17T04:23:42.321Z,18.70
2022-10-17T04:26:09.565Z,18.70
2022-10-17T04:31:16.684Z,18.70
2022-10-17T04:33:44.680Z,18.70
2022-10-17T04:36:13.816Z,18.70
2022-10-17T04:38:41.282Z,18.70
2022-10-17T04:41:14.929Z,18.70
2022-10-17T04:43:48.544Z,18.80
2022-10-17T04:46:18.385Z,18.80
2022-10-17T04:48:45.599Z,18.70
2022-10-17T04:51:18.769Z,18.80
2022-10-17T04:53:50.389Z,18.80
2022-10-17T04:56:21.203Z,18.80
2022-10-17T04:58:52.025Z,18.80
2022-10-17T05:01:23.681Z,18.80
2022-10-17T05:03:53.339Z,18.80
2022-10-17T05:06:27.906Z,18.80
2022-10-17T05:08:55.327Z,18.80
2022-10-17T05:11:24.790Z,18.80
2022-10-17T05:14:02.350Z,18.90
2022-10-17T05:16:32.494Z,18.90
2022-10-17T05:19:02.425Z,18.90
2022-10-17T05:24:09.170Z,18.90
2022-10-17T05:26:36.395Z,18.90
2022-10-17T05:29:04.374Z,18.90
2022-10-17T05:31:31.889Z,19.00
2022-10-17T05:34:07.077Z,19.00
2022-10-17T05:36:36.382Z,19.00
2022-10-17T05:39:06.064Z,19.00
2022-10-17T05:41:33.197Z,19.00
2022-10-17T05:44:03.209Z,19.00
2022-10-17T05:46:35.864Z,19.00
2022-10-17T05:49:14.876Z,19.00
2022-10-17T05:51:46.612Z,19.00
2022-10-17T05:54:13.797Z,19.00
2022-10-17T05:56:40.969Z,19.00
2022-10-17T05:59:08.115Z,19.10
2022-10-17T06:01:35.317Z,19.00
2022-10-17T06:04:02.516Z,19.10
2022-10-17T06:06:29.744Z,19.10
2022-10-17T06:08:56.880Z,19.10
2022-10-17T06:11:24.139Z,19.10
2022-10-17T06:13:51.321Z,19.10
2022-10-17T06:16:18.541Z,19.10
2022-10-17T06:18:45.769Z,19.20
2022-10-17T06:21:17.161Z,19.20
2022-10-17T06:23:44.351Z,19.20
2022-10-17T06:26:13.708Z,19.20
2022-10-17T06:28:43.422Z,19.20
2022-10-17T06:31:16.741Z,19.20
2022-10-17T06:33:43.931Z,19.30
2022-10-17T06:36:13.873Z,19.30
2022-10-17T06:38:41.368Z,19.30
2022-10-17T06:41:13.415Z,19.30
2022-10-17T06:43:48.655Z,19.30
2022-10-17T06:46:17.944Z,19.40
2022-10-17T06:48:47.421Z,19.40
2022-10-17T06:51:17.058Z,19.40
2022-10-17T06:53:44.254Z,19.40
2022-10-17T06:56:11.681Z,19.40
2022-10-17T06:58:41.560Z,19.40
2022-10-17T07:01:11.703Z,19.50
2022-10-17T07:03:40.257Z,19.50
2022-10-17T07:06:07.729Z,19.60
2022-10-17T07:08:34.905Z,19.60
2022-10-17T07:11:18.077Z,19.60
2022-10-17T07:13:47.597Z,19.70
2022-10-17T07:16:16.015Z,19.70
2022-10-17T07:18:43.651Z,19.80
2022-10-17T07:21:13.195Z,19.80
2022-10-17T07:23:41.452Z,19.90
2022-10-17T07:26:11.360Z,19.90
2022-10-17T07:28:41.316Z,20.00
2022-10-17T07:31:11.422Z,20.00
2022-10-17T07:33:41.774Z,20.00
2022-10-17T07:36:09.387Z,20.10
2022-10-17T07:38:36.884Z,20.10
2022-10-17T07:41:06.730Z,20.10
2022-10-17T07:43:34.610Z,20.10
2022-10-17T07:46:02.535Z,20.10
2022-10-17T07:48:32.242Z,20.20
2022-10-17T07:51:02.905Z,20.20
2022-10-17T07:53:30.624Z,20.20
2022-10-17T07:55:58.146Z,20.20
2022-10-17T07:58:25.909Z,20.20
2022-10-17T08:00:53.313Z,20.20
2022-10-17T08:03:20.587Z,20.20
2022-10-17T08:05:47.840Z,20.20
2022-10-17T08:08:15.053Z,20.20
2022-10-17T08:10:42.264Z,20.20
2022-10-17T08:13:09.637Z,20.20
2022-10-17T08:15:38.829Z,20.20
2022-10-17T08:18:06.118Z,20.30
2022-10-17T08:20:33.487Z,20.30
2022-10-17T08:23:00.754Z,20.30
2022-10-17T08:25:28.001Z,20.30
2022-10-17T08:27:55.292Z,20.30
2022-10-17T08:30:25.035Z,20.30
2022-10-17T08:32:52.344Z,20.30
2022-10-17T08:35:21.423Z,20.30
2022-10-17T08:37:50.921Z,20.30
2022-10-17T08:40:26.271Z,20.30
2022-10-17T08:43:33.293Z,20.30
2022-10-17T08:46:06.685Z,20.30
2022-10-17T08:48:42.758Z,20.30
2022-10-17T08:51:24.633Z,20.20
2022-10-17T08:54:16.868Z,20.30
2022-10-17T08:56:48.914Z,20.30
2022-10-17T08:59:28.559Z,20.20
2022-10-17T09:02:22.823Z,20.30
2022-10-17T09:05:14.665Z,20.30
2022-10-17T09:08:09.188Z,20.30
2022-10-17T09:10:55.472Z,20.30
2022-10-17T09:13:53.408Z,20.30
2022-10-17T09:16:49.179Z,20.30
2022-10-17T09:19:43.009Z,20.30
2022-10-17T09:22:17.038Z,20.30
2022-10-17T09:24:55.885Z,20.30
2022-10-17T09:28:04.989Z,20.30
2022-10-17T09:30:45.788Z,20.30
2022-10-17T09:33:35.373Z,20.30
2022-10-17T09:36:24.821Z,20.30
2022-10-17T09:39:17.267Z,20.30
2022-10-17T09:41:51.722Z,20.30
2022-10-17T09:44:44.045Z,20.20
2022-10-17T09:47:24.012Z,20.30
2022-10-17T09:49:51.718Z,20.30
2022-10-17T09:52:33.231Z,20.30
2022-10-17T09:55:15.379Z,20.30
2022-10-17T09:58:03.285Z,20.30
2022-10-17T10:00:42.620Z,20.30
2022-10-17T10:03:09.728Z,20.30
2022-10-17T10:05:36.999Z,20.30
2022-10-17T10:08:11.578Z,20.40
2022-10-17T10:10:42.960Z,20.40
2022-10-17T10:13:13.231Z,20.40
2022-10-17T10:15:49.428Z,20.40
2022-10-17T10:18:33.262Z,20.50
2022-10-17T10:21:07.128Z,20.50
2022-10-17T10:23:40.175Z,20.50
2022-10-17T10:26:13.262Z,20.60
2022-10-17T10:28:42.054Z,20.60
2022-10-17T10:31:10.189Z,20.60
2022-10-17T10:33:45.903Z,20.70
2022-10-17T10:36:16.519Z,20.70
2022-10-17T10:38:55.104Z,20.70
2022-10-17T10:41:27.726Z,20.70
2022-10-17T10:43:56.287Z,20.80
2022-10-17T10:46:28.271Z,20.80
2022-10-17T10:49:00.974Z,20.80
2022-10-17T10:51:43.398Z,20.80
2022-10-17T10:54:21.717Z,20.90
2022-10-17T10:56:58.048Z,20.90
2022-10-17T10:59:34.109Z,20.90
2022-10-17T11:02:05.065Z,20.90
2022-10-17T11:04:59.302Z,20.90
2022-10-17T11:07:36.658Z,20.90
2022-10-17T11:10:25.296Z,20.90
2022-10-17T11:12:55.230Z,20.90
2022-10-17T11:15:31.229Z,20.90
2022-10-17T11:18:08.030Z,20.90
2022-10-17T11:20:58.206Z,20.90
2022-10-17T11:23:39.696Z,21.00
2022-10-17T11:26:12.147Z,21.00
2022-10-17T11:28:39.328Z,20.90
2022-10-17T11:31:13.317Z,21.00
2022-10-17T11:33:54.844Z,21.00
2022-10-17T11:36:28.254Z,21.00
2022-10-17T11:39:11.021Z,21.00
2022-10-17T11:41:54.174Z,21.00
2022-10-17T11:44:35.601Z,21.00
2022-10-17T11:47:30.009Z,21.00
2022-10-17T11:53:19.284Z,21.00
2022-10-17T11:55:47.325Z,21.00
2022-10-17T11:58:31.856Z,21.10
2022-10-17T12:01:23.972Z,21.10
2022-10-17T12:04:14.009Z,21.10
2022-10-17T12:07:01.158Z,21.10
2022-10-17T12:09:48.931Z,21.10
2022-10-17T12:12:30.618Z,21.10
2022-10-17T12:15:13.443Z,21.20
2022-10-17T12:17:45.769Z,21.20
2022-10-17T12:20:35.588Z,21.20
2022-10-17T12:23:05.758Z,21.20
2022-10-17T12:25:39.153Z,21.20
2022-10-17T12:28:26.406Z,21.20
2022-10-17T12:31:00.595Z,21.20
2022-10-17T12:33:51.219Z,21.20
2022-10-17T12:36:47.620Z,21.20
2022-10-17T12:39:15.886Z,21.10
2022-10-17T12:41:46.582Z,21.10
2022-10-17T12:44:13.995Z,21.20
2022-10-17T12:46:49.220Z,21.20
2022-10-17T12:49:37.364Z,21.20
2022-10-17T12:52:29.739Z,21.20
2022-10-17T12:55:11.402Z,21.30
2022-10-17T12:57:55.515Z,21.30
2022-10-17T13:00:22.692Z,21.30
2022-10-17T13:02:53.973Z,21.30
2022-10-17T13:05:29.675Z,21.30
2022-10-17T13:07:59.980Z,21.40
2022-10-17T13:10:30.058Z,21.40
2022-10-17T13:13:06.211Z,21.40
2022-10-17T13:15:34.725Z,21.40
2022-10-17T13:18:02.300Z,21.40
2022-10-17T13:20:31.988Z,21.40
2022-10-17T13:22:59.818Z,21.40
2022-10-17T13:25:28.098Z,21.40
2022-10-17T13:28:13.658Z,21.40
2022-10-17T13:30:47.852Z,21.40
2022-10-17T13:33:31.224Z,21.40
2022-10-17T13:36:02.758Z,21.50
2022-10-17T13:38:32.827Z,21.50
2022-10-17T13:41:23.214Z,21.50
2022-10-17T13:43:51.498Z,21.50
2022-10-17T13:46:39.694Z,21.50
2022-10-17T13:49:34.819Z,21.60
2022-10-17T13:52:04.782Z,21.60
2022-10-17T13:54:40.186Z,21.60
2022-10-17T13:57:25.722Z,21.60
2022-10-17T14:00:10.106Z,21.60
2022-10-17T14:02:41.442Z,21.60
2022-10-17T14:05:17.859Z,21.60
2022-10-17T14:08:11.294Z,21.60
2022-10-17T14:10:41.230Z,21.60
2022-10-17T14:13:19.919Z,21.60
2022-10-17T14:15:47.622Z,21.50
2022-10-17T14:18:19.634Z,21.50
2022-10-17T14:21:29.153Z,21.50
2022-10-17T14:23:37.816Z,21.50
2022-10-17T14:26:25.440Z,21.50
2022-10-17T14:29:18.533Z,21.50
2022-10-17T14:31:47.921Z,21.50
2022-10-17T14:34:38.468Z,21.40
2022-10-17T14:37:31.615Z,21.40
2022-10-17T14:40:00.954Z,21.40
2022-10-17T14:42:28.595Z,21.40
2022-10-17T14:45:06.611Z,21.40
2022-10-17T14:47:49.493Z,21.40
2022-10-17T14:50:31.904Z,21.40
2022-10-17T14:53:12.175Z,21.40
2022-10-17T14:55:41.260Z,21.40
2022-10-17T14:58:19.009Z,21.40
2022-10-17T15:00:46.247Z,21.30
2022-10-17T15:03:13.800Z,21.40
2022-10-17T15:05:41.357Z,21.40
2022-10-17T15:08:15.061Z,21.40
2022-10-17T15:10:43.403Z,21.40
2022-10-17T15:13:29.047Z,21.40
2022-10-17T15:16:00.541Z,21.40
2022-10-17T15:18:27.697Z,21.40
2022-10-17T15:21:04.590Z,21.40
2022-10-17T15:23:33.883Z,21.40
2022-10-17T15:26:03.605Z,21.30
2022-10-17T15:28:32.934Z,21.30
2022-10-17T15:31:02.398Z,21.30
2022-10-17T15:33:29.557Z,21.30
2022-10-17T15:38:28.951Z,21.30
2022-10-17T15:40:56.162Z,21.30
2022-10-17T15:43:23.336Z,21.20
2022-10-17T15:45:50.540Z,21.20
2022-10-17T15:48:22.631Z,21.20
2022-10-17T15:50:49.786Z,21.20
2022-10-17T15:53:17.031Z,21.20
2022-10-17T15:55:44.242Z,21.20
2022-10-17T15:58:16.590Z,21.10
2022-10-17T16:00:44.626Z,21.10
2022-10-17T16:03:16.730Z,21.10
2022-10-17T16:05:49.083Z,21.10
2022-10-17T16:08:16.426Z,21.10
2022-10-17T16:10:43.559Z,21.00
2022-10-17T16:13:21.019Z,21.00
2022-10-17T16:15:48.356Z,21.00
2022-10-17T16:18:17.997Z,21.00
2022-10-17T16:20:47.677Z,21.00
2022-10-17T16:23:19.341Z,21.00
2022-10-17T16:25:48.592Z,20.90
2022-10-17T16:28:15.939Z,20.90
2022-10-17T16:30:46.021Z,20.90
2022-10-17T16:33:13.480Z,20.90
2022-10-17T16:35:40.631Z,20.90
2022-10-17T16:38:08.032Z,20.80
2022-10-17T16:40:37.774Z,20.80
2022-10-17T16:43:05.021Z,20.80
2022-10-17T16:45:32.219Z,20.80
2022-10-17T16:47:59.750Z,20.80
2022-10-17T16:50:31.225Z,20.80
2022-10-17T16:52:58.353Z,20.70
2022-10-17T16:55:25.578Z,20.70
2022-10-17T16:57:55.195Z,20.70
2022-10-17T17:00:22.446Z,20.60
2022-10-17T17:02:49.699Z,20.70
2022-10-17T17:05:16.952Z,20.60
2022-10-17T17:07:44.161Z,20.60
2022-10-17T17:10:11.332Z,20.60
2022-10-17T17:12:38.581Z,20.50
2022-10-17T17:15:05.933Z,20.50
2022-10-17T17:17:48.708Z,20.50
2022-10-17T17:20:16.688Z,20.50
2022-10-17T17:22:43.849Z,20.40
2022-10-17T17:25:11.053Z,20.40
2022-10-17T17:27:38.231Z,20.40
2022-10-17T17:30:05.855Z,20.40
2022-10-17T17:32:33.226Z,20.30
2022-10-17T17:35:00.361Z,20.30
2022-10-17T17:37:27.822Z,20.30
2022-10-17T17:39:55.209Z,20.20
2022-10-17T17:42:22.448Z,20.20
2022-10-17T17:44:50.751Z,20.20
2022-10-17T17:47:18.134Z,20.20
2022-10-17T17:49:48.159Z,20.10
2022-10-17T17:52:15.358Z,20.10
2022-10-17T17:54:42.570Z,20.00
2022-10-17T17:57:09.731Z,20.00
2022-10-17T17:59:38.837Z,19.90
2022-10-17T18:02:06.826Z,19.90
2022-10-17T18:04:34.493Z,19.80
2022-10-17T18:07:01.821Z,19.80
2022-10-17T18:09:29.081Z,19.80
2022-10-17T18:11:56.263Z,19.70
2022-10-17T18:14:26.616Z,19.70
2022-10-17T18:16:53.729Z,19.70
2022-10-17T18:19:22.279Z,19.60
2022-10-17T18:21:51.715Z,19.60
2022-10-17T18:24:19.168Z,19.60
2022-10-17T18:26:46.412Z,19.60
2022-10-17T18:29:13.578Z,19.50
2022-10-17T18:31:40.955Z,19.50
2022-10-17T18:34:10.526Z,19.50
2022-10-17T18:36:40.019Z,19.50
2022-10-17T18:39:09.605Z,19.50
2022-10-17T18:41:36.788Z,19.40
2022-10-17T18:44:04.242Z,19.40
2022-10-17T18:46:40.463Z,19.40
2022-10-17T18:49:12.918Z,19.40
2022-10-17T18:51:45.117Z,19.40
2022-10-17T18:54:20.714Z,19.40
2022-10-17T18:56:53.546Z,19.40
2022-10-17T18:59:21.488Z,19.30
2022-10-17T19:01:50.906Z,19.30
2022-10-17T19:04:18.177Z,19.30
2022-10-17T19:06:45.483Z,19.30
2022-10-17T19:09:14.059Z,19.30
2022-10-17T19:11:42.890Z,19.30
2022-10-17T19:14:14.747Z,19.30
2022-10-17T19:16:45.886Z,19.30
2022-10-17T19:19:16.787Z,19.20
2022-10-17T19:21:44.797Z,19.20
2022-10-17T19:24:22.746Z,19.20
2022-10-17T19:26:53.417Z,19.20
2022-10-17T19:29:24.052Z,19.20
2022-10-17T19:34:27.725Z,19.20
2022-10-17T19:36:55.872Z,19.20
2022-10-17T19:39:23.902Z,19.20
2022-10-17T19:41:51.116Z,19.10
2022-10-17T19:44:22.919Z,19.10
2022-10-17T19:46:50.187Z,19.10
2022-10-17T19:49:17.897Z,19.10
2022-10-17T19:51:45.415Z,19.10
2022-10-17T19:54:12.944Z,19.10
2022-10-17T19:56:43.063Z,19.10
2022-10-17T19:59:14.435Z,19.10
2022-10-17T20:01:42.194Z,19.00
2022-10-17T20:04:10.953Z,19.00
2022-10-17T20:06:39.362Z,19.00
2022-10-17T20:09:08.881Z,19.00
2022-10-17T20:11:38.329Z,19.00
2022-10-17T20:14:06.747Z,19.00
2022-10-17T20:16:36.070Z,19.00
2022-10-17T20:19:09.726Z,19.00
2022-10-17T20:21:39.596Z,19.00
2022-10-17T20:24:11.107Z,18.90
2022-10-17T20:26:39.643Z,18.90
2022-10-17T20:29:15.003Z,18.90
2022-10-17T20:31:44.275Z,18.90
2022-10-17T20:34:16.830Z,18.90
2022-10-17T20:36:49.106Z,18.90
2022-10-17T20:39:20.406Z,18.80
2022-10-17T20:41:48.226Z,18.80
2022-10-17T20:44:15.523Z,18.80
2022-10-17T20:47:00.648Z,18.80
2022-10-17T20:49:33.655Z,18.80
2022-10-17T20:52:01.462Z,18.80
2022-10-17T20:54:28.895Z,18.80
2022-10-17T20:56:58.694Z,18.80
2022-10-17T20:59:28.302Z,18.80
2022-10-17T21:01:55.515Z,18.80
2022-10-17T21:04:44.859Z,18.80
2022-10-17T21:07:09.993Z,18.80
2022-10-17T21:09:39.501Z,18.80
2022-10-17T21:12:06.627Z,18.70
2022-10-17T21:14:33.779Z,18.70
2022-10-17T21:17:04.802Z,18.70
2022-10-17T21:19:32.733Z,18.70
2022-10-17T21:22:00.199Z,18.70
2022-10-17T21:24:27.764Z,18.70
2022-10-17T21:26:57.892Z,18.70
2022-10-17T21:29:25.158Z,18.70
2022-10-17T21:31:54.980Z,18.70
2022-10-17T21:34:26.353Z,18.70
2022-10-17T21:36:53.853Z,18.70
2022-10-17T21:39:22.916Z,18.70
2022-10-17T21:41:53.304Z,18.70
2022-10-17T21:44:25.049Z,18.70
2022-10-17T21:46:53.039Z,18.70
2022-10-17T21:49:25.150Z,18.70
2022-10-17T21:51:55.438Z,18.70
2022-10-17T21:54:23.537Z,18.70
2022-10-17T21:56:53.309Z,18.70
2022-10-17T21:59:20.533Z,18.70
2022-10-17T22:01:47.773Z,18.70
2022-10-17T22:04:18.454Z,18.70
2022-10-17T22:06:47.915Z,18.70
2022-10-17T22:09:24.488Z,18.70
2022-10-17T22:11:54.476Z,18.70
2022-10-17T22:14:23.093Z,18.70
2022-10-17T22:16:50.646Z,18.70
2022-10-17T22:19:21.336Z,18.70
2022-10-17T22:21:48.878Z,18.70
2022-10-17T22:24:18.070Z,18.70
2022-10-17T22:26:45.688Z,18.70
2022-10-17T22:29:13.282Z,18.70
2022-10-17T22:31:40.830Z,18.70
2022-10-17T22:34:08.547Z,18.70
2022-10-17T22:36:36.189Z,18.70
2022-10-17T22:39:04.551Z,18.70
2022-10-17T22:41:32.055Z,18.60
2022-10-17T22:43:59.454Z,18.60
2022-10-17T22:46:26.726Z,18.60
2022-10-17T22:48:53.973Z,18.60
2022-10-17T22:51:21.402Z,18.60
2022-10-17T22:53:51.245Z,18.60
2022-10-17T22:56:21.145Z,18.60
2022-10-17T22:58:51.400Z,18.60
2022-10-17T23:01:23.108Z,18.60
2022-10-17T23:03:51.917Z,18.60
2022-10-17T23:06:22.321Z,18.60
2022-10-17T23:08:49.595Z,18.60
2022-10-17T23:11:17.107Z,18.60
2022-10-17T23:13:44.497Z,18.60
2022-10-17T23:16:11.685Z,18.60
2022-10-17T23:18:39.322Z,18.60
2022-10-17T23:21:07.341Z,18.60
2022-10-17T23:23:34.511Z,18.60
2022-10-17T23:26:10.814Z,18.60
2022-10-17T23:28:41.141Z,18.60
2022-10-17T23:31:12.579Z,18.50
2022-10-17T23:33:41.473Z,18.60
2022-10-17T23:36:10.615Z,18.50
2022-10-17T23:38:38.886Z,18.50
2022-10-17T23:41:06.234Z,18.60
2022-10-17T23:43:34.313Z,18.50
2022-10-17T23:46:02.752Z,18.60
2022-10-17T23:48:30.402Z,18.50
2022-10-17T23:50:57.791Z,18.50
2022-10-17T23:53:25.523Z,18.50
2022-10-17T23:55:55.196Z,18.50
2022-10-17T23:58:22.470Z,18.50
